sensor_id;sensor_type;location;lat;lon;timestamp;P1;durP1;ratioP1;P2;durP2;ratioP2
12986;SDS011;58897;51.960;5.582;2023-04-07T00:00:02;12.37;;;6.80;;
12986;SDS011;58897;51.960;5.582;2023-04-07T00:02:30;11.37;;;6.47;;
12986;SDS011;58897;51.960;5.582;2023-04-07T00:04:58;10.47;;;5.80;;
12986;SDS011;58897;51.960;5.582;2023-04-07T00:07:25;15.17;;;7.20;;
12986;SDS011;58897;51.960;5.582;2023-04-07T00:09:52;10.73;;;5.73;;
12986;SDS011;58897;51.960;5.582;2023-04-07T00:12:19;19.43;;;6.93;;
12986;SDS011;58897;51.960;5.582;2023-04-07T00:14:45;10.67;;;5.60;;
12986;SDS011;58897;51.960;5.582;2023-04-07T00:17:12;10.27;;;5.77;;
12986;SDS011;58897;51.960;5.582;2023-04-07T00:19:38;11.73;;;6.03;;
12986;SDS011;58897;51.960;5.582;2023-04-07T00:22:05;17.90;;;6.00;;
12986;SDS011;58897;51.960;5.582;2023-04-07T00:24:31;10.93;;;5.53;;
12986;SDS011;58897;51.960;5.582;2023-04-07T00:27:00;9.50;;;5.23;;
12986;SDS011;58897;51.960;5.582;2023-04-07T00:29:29;9.33;;;5.60;;
12986;SDS011;58897;51.960;5.582;2023-04-07T00:31:56;11.10;;;5.77;;
12986;SDS011;58897;51.960;5.582;2023-04-07T00:34:22;8.20;;;4.93;;
12986;SDS011;58897;51.960;5.582;2023-04-07T00:36:49;10.73;;;5.07;;
12986;SDS011;58897;51.960;5.582;2023-04-07T00:39:19;14.33;;;5.30;;
12986;SDS011;58897;51.960;5.582;2023-04-07T00:41:46;13.87;;;5.50;;
12986;SDS011;58897;51.960;5.582;2023-04-07T00:44:13;8.90;;;4.27;;
12986;SDS011;58897;51.960;5.582;2023-04-07T00:46:41;8.60;;;5.10;;
12986;SDS011;58897;51.960;5.582;2023-04-07T00:49:08;7.97;;;4.40;;
12986;SDS011;58897;51.960;5.582;2023-04-07T00:51:36;8.57;;;4.73;;
12986;SDS011;58897;51.960;5.582;2023-04-07T00:54:03;9.20;;;3.90;;
12986;SDS011;58897;51.960;5.582;2023-04-07T00:56:30;8.83;;;4.50;;
12986;SDS011;58897;51.960;5.582;2023-04-07T00:58:57;6.87;;;3.63;;
12986;SDS011;58897;51.960;5.582;2023-04-07T01:01:26;8.20;;;4.27;;
12986;SDS011;58897;51.960;5.582;2023-04-07T01:04:06;8.30;;;3.67;;
12986;SDS011;58897;51.960;5.582;2023-04-07T01:06:36;8.13;;;4.70;;
12986;SDS011;58897;51.960;5.582;2023-04-07T01:12:12;12.20;;;4.27;;
12986;SDS011;58897;51.960;5.582;2023-04-07T01:14:59;5.27;;;3.57;;
12986;SDS011;58897;51.960;5.582;2023-04-07T01:17:38;10.20;;;3.63;;
12986;SDS011;58897;51.960;5.582;2023-04-07T01:20:15;15.87;;;4.33;;
12986;SDS011;58897;51.960;5.582;2023-04-07T01:22:45;11.03;;;4.17;;
12986;SDS011;58897;51.960;5.582;2023-04-07T01:25:26;9.27;;;4.33;;
12986;SDS011;58897;51.960;5.582;2023-04-07T01:30:29;7.50;;;4.23;;
12986;SDS011;58897;51.960;5.582;2023-04-07T01:32:59;7.80;;;4.40;;
12986;SDS011;58897;51.960;5.582;2023-04-07T01:35:28;12.27;;;4.40;;
12986;SDS011;58897;51.960;5.582;2023-04-07T01:37:58;8.20;;;4.40;;
12986;SDS011;58897;51.960;5.582;2023-04-07T01:40:25;11.93;;;4.77;;
12986;SDS011;58897;51.960;5.582;2023-04-07T01:42:55;6.67;;;3.63;;
12986;SDS011;58897;51.960;5.582;2023-04-07T01:45:23;8.80;;;4.40;;
12986;SDS011;58897;51.960;5.582;2023-04-07T01:47:51;7.87;;;4.83;;
12986;SDS011;58897;51.960;5.582;2023-04-07T01:50:20;18.43;;;5.73;;
12986;SDS011;58897;51.960;5.582;2023-04-07T01:52:47;9.40;;;4.53;;
12986;SDS011;58897;51.960;5.582;2023-04-07T01:55:15;11.20;;;4.90;;
12986;SDS011;58897;51.960;5.582;2023-04-07T01:57:42;7.20;;;4.50;;
12986;SDS011;58897;51.960;5.582;2023-04-07T02:00:09;11.67;;;4.60;;
12986;SDS011;58897;51.960;5.582;2023-04-07T02:02:37;10.87;;;4.97;;
12986;SDS011;58897;51.960;5.582;2023-04-07T02:05:11;9.63;;;4.00;;
12986;SDS011;58897;51.960;5.582;2023-04-07T02:10:11;9.87;;;3.70;;
12986;SDS011;58897;51.960;5.582;2023-04-07T02:12:40;12.00;;;4.33;;
12986;SDS011;58897;51.960;5.582;2023-04-07T02:15:09;9.87;;;4.27;;
12986;SDS011;58897;51.960;5.582;2023-04-07T02:17:38;6.97;;;3.90;;
12986;SDS011;58897;51.960;5.582;2023-04-07T02:20:07;6.63;;;3.40;;
12986;SDS011;58897;51.960;5.582;2023-04-07T02:22:37;9.97;;;4.30;;
12986;SDS011;58897;51.960;5.582;2023-04-07T02:25:25;8.80;;;4.17;;
12986;SDS011;58897;51.960;5.582;2023-04-07T02:27:56;11.13;;;4.23;;
12986;SDS011;58897;51.960;5.582;2023-04-07T02:30:24;9.70;;;5.13;;
12986;SDS011;58897;51.960;5.582;2023-04-07T02:32:51;9.50;;;4.53;;
12986;SDS011;58897;51.960;5.582;2023-04-07T02:35:19;17.97;;;5.80;;
12986;SDS011;58897;51.960;5.582;2023-04-07T02:37:46;6.63;;;4.00;;
12986;SDS011;58897;51.960;5.582;2023-04-07T02:40:13;10.60;;;5.23;;
12986;SDS011;58897;51.960;5.582;2023-04-07T02:42:40;12.87;;;5.57;;
12986;SDS011;58897;51.960;5.582;2023-04-07T02:45:07;10.37;;;5.00;;
12986;SDS011;58897;51.960;5.582;2023-04-07T02:47:35;11.27;;;6.53;;
12986;SDS011;58897;51.960;5.582;2023-04-07T02:50:06;12.67;;;5.23;;
12986;SDS011;58897;51.960;5.582;2023-04-07T02:52:32;9.80;;;4.97;;
12986;SDS011;58897;51.960;5.582;2023-04-07T02:54:59;11.63;;;5.77;;
12986;SDS011;58897;51.960;5.582;2023-04-07T02:57:26;14.57;;;7.00;;
12986;SDS011;58897;51.960;5.582;2023-04-07T02:59:52;15.90;;;6.33;;
12986;SDS011;58897;51.960;5.582;2023-04-07T03:02:21;11.23;;;6.67;;
12986;SDS011;58897;51.960;5.582;2023-04-07T03:04:50;14.93;;;7.07;;
12986;SDS011;58897;51.960;5.582;2023-04-07T03:07:17;22.73;;;7.83;;
12986;SDS011;58897;51.960;5.582;2023-04-07T03:09:44;13.83;;;6.33;;
12986;SDS011;58897;51.960;5.582;2023-04-07T03:12:11;14.17;;;6.53;;
12986;SDS011;58897;51.960;5.582;2023-04-07T03:14:37;13.93;;;6.10;;
12986;SDS011;58897;51.960;5.582;2023-04-07T03:17:04;12.77;;;6.33;;
12986;SDS011;58897;51.960;5.582;2023-04-07T03:19:31;15.13;;;7.40;;
12986;SDS011;58897;51.960;5.582;2023-04-07T03:21:57;13.17;;;6.60;;
12986;SDS011;58897;51.960;5.582;2023-04-07T03:24:24;12.93;;;7.33;;
12986;SDS011;58897;51.960;5.582;2023-04-07T03:26:50;17.20;;;7.83;;
12986;SDS011;58897;51.960;5.582;2023-04-07T03:29:17;20.43;;;7.27;;
12986;SDS011;58897;51.960;5.582;2023-04-07T03:31:44;17.57;;;7.27;;
12986;SDS011;58897;51.960;5.582;2023-04-07T03:34:11;14.73;;;6.20;;
12986;SDS011;58897;51.960;5.582;2023-04-07T03:36:38;15.03;;;7.33;;
12986;SDS011;58897;51.960;5.582;2023-04-07T03:39:04;19.07;;;6.47;;
12986;SDS011;58897;51.960;5.582;2023-04-07T03:41:31;10.97;;;5.97;;
12986;SDS011;58897;51.960;5.582;2023-04-07T03:43:58;17.20;;;6.67;;
12986;SDS011;58897;51.960;5.582;2023-04-07T03:46:25;13.53;;;6.97;;
12986;SDS011;58897;51.960;5.582;2023-04-07T03:48:52;14.50;;;6.70;;
12986;SDS011;58897;51.960;5.582;2023-04-07T03:51:19;14.30;;;6.50;;
12986;SDS011;58897;51.960;5.582;2023-04-07T03:53:49;10.67;;;5.67;;
12986;SDS011;58897;51.960;5.582;2023-04-07T03:56:17;8.87;;;4.70;;
12986;SDS011;58897;51.960;5.582;2023-04-07T03:58:43;16.70;;;5.77;;
12986;SDS011;58897;51.960;5.582;2023-04-07T04:01:11;12.47;;;5.70;;
12986;SDS011;58897;51.960;5.582;2023-04-07T04:03:38;10.83;;;4.97;;
12986;SDS011;58897;51.960;5.582;2023-04-07T04:06:05;11.03;;;4.70;;
12986;SDS011;58897;51.960;5.582;2023-04-07T04:08:32;10.13;;;4.57;;
12986;SDS011;58897;51.960;5.582;2023-04-07T04:10:58;10.70;;;5.00;;
12986;SDS011;58897;51.960;5.582;2023-04-07T04:13:25;11.20;;;4.70;;
12986;SDS011;58897;51.960;5.582;2023-04-07T04:15:52;8.20;;;4.43;;
12986;SDS011;58897;51.960;5.582;2023-04-07T04:18:18;13.97;;;5.00;;
12986;SDS011;58897;51.960;5.582;2023-04-07T04:20:45;9.40;;;4.53;;
12986;SDS011;58897;51.960;5.582;2023-04-07T04:23:14;15.57;;;4.83;;
12986;SDS011;58897;51.960;5.582;2023-04-07T04:25:41;7.33;;;4.10;;
12986;SDS011;58897;51.960;5.582;2023-04-07T04:28:07;10.77;;;4.50;;
12986;SDS011;58897;51.960;5.582;2023-04-07T04:30:34;11.90;;;4.07;;
12986;SDS011;58897;51.960;5.582;2023-04-07T04:33:02;11.87;;;4.30;;
12986;SDS011;58897;51.960;5.582;2023-04-07T04:35:28;8.33;;;3.80;;
12986;SDS011;58897;51.960;5.582;2023-04-07T04:37:55;8.47;;;3.90;;
12986;SDS011;58897;51.960;5.582;2023-04-07T04:40:22;8.67;;;3.30;;
12986;SDS011;58897;51.960;5.582;2023-04-07T04:42:48;11.13;;;3.93;;
12986;SDS011;58897;51.960;5.582;2023-04-07T04:45:15;10.40;;;3.57;;
12986;SDS011;58897;51.960;5.582;2023-04-07T04:47:41;9.33;;;4.17;;
12986;SDS011;58897;51.960;5.582;2023-04-07T04:50:09;14.10;;;4.43;;
12986;SDS011;58897;51.960;5.582;2023-04-07T04:52:36;11.43;;;4.73;;
12986;SDS011;58897;51.960;5.582;2023-04-07T04:55:03;9.07;;;3.43;;
12986;SDS011;58897;51.960;5.582;2023-04-07T04:57:30;8.83;;;4.63;;
12986;SDS011;58897;51.960;5.582;2023-04-07T04:59:57;8.80;;;3.50;;
12986;SDS011;58897;51.960;5.582;2023-04-07T05:02:25;13.27;;;3.90;;
12986;SDS011;58897;51.960;5.582;2023-04-07T05:04:51;10.80;;;4.30;;
12986;SDS011;58897;51.960;5.582;2023-04-07T05:07:18;9.13;;;4.43;;
12986;SDS011;58897;51.960;5.582;2023-04-07T05:09:45;12.10;;;4.77;;
12986;SDS011;58897;51.960;5.582;2023-04-07T05:12:11;10.33;;;5.17;;
12986;SDS011;58897;51.960;5.582;2023-04-07T05:14:37;10.17;;;4.60;;
12986;SDS011;58897;51.960;5.582;2023-04-07T05:17:04;10.23;;;4.70;;
12986;SDS011;58897;51.960;5.582;2023-04-07T05:19:31;10.23;;;4.73;;
12986;SDS011;58897;51.960;5.582;2023-04-07T05:21:57;7.73;;;4.23;;
12986;SDS011;58897;51.960;5.582;2023-04-07T05:24:27;11.93;;;4.27;;
12986;SDS011;58897;51.960;5.582;2023-04-07T05:26:54;8.27;;;4.07;;
12986;SDS011;58897;51.960;5.582;2023-04-07T05:29:22;9.43;;;4.20;;
12986;SDS011;58897;51.960;5.582;2023-04-07T05:31:49;9.20;;;4.97;;
12986;SDS011;58897;51.960;5.582;2023-04-07T05:34:15;11.73;;;5.03;;
12986;SDS011;58897;51.960;5.582;2023-04-07T05:36:42;13.10;;;5.87;;
12986;SDS011;58897;51.960;5.582;2023-04-07T05:39:09;9.50;;;4.60;;
12986;SDS011;58897;51.960;5.582;2023-04-07T05:41:35;11.70;;;5.93;;
12986;SDS011;58897;51.960;5.582;2023-04-07T05:44:02;13.10;;;5.00;;
12986;SDS011;58897;51.960;5.582;2023-04-07T05:46:29;9.93;;;5.37;;
12986;SDS011;58897;51.960;5.582;2023-04-07T05:48:55;13.20;;;5.60;;
12986;SDS011;58897;51.960;5.582;2023-04-07T05:51:24;10.57;;;5.20;;
12986;SDS011;58897;51.960;5.582;2023-04-07T05:53:51;11.27;;;5.73;;
12986;SDS011;58897;51.960;5.582;2023-04-07T05:56:18;12.83;;;6.27;;
12986;SDS011;58897;51.960;5.582;2023-04-07T05:58:45;12.33;;;5.97;;
12986;SDS011;58897;51.960;5.582;2023-04-07T06:01:11;14.53;;;5.20;;
12986;SDS011;58897;51.960;5.582;2023-04-07T06:03:38;12.33;;;5.07;;
12986;SDS011;58897;51.960;5.582;2023-04-07T06:06:06;9.27;;;5.57;;
12986;SDS011;58897;51.960;5.582;2023-04-07T06:08:32;10.37;;;5.40;;
12986;SDS011;58897;51.960;5.582;2023-04-07T06:10:59;12.90;;;5.87;;
12986;SDS011;58897;51.960;5.582;2023-04-07T06:13:26;7.97;;;5.13;;
12986;SDS011;58897;51.960;5.582;2023-04-07T06:15:54;14.40;;;6.10;;
12986;SDS011;58897;51.960;5.582;2023-04-07T06:18:21;11.60;;;5.53;;
12986;SDS011;58897;51.960;5.582;2023-04-07T06:20:48;13.53;;;5.90;;
12986;SDS011;58897;51.960;5.582;2023-04-07T06:23:14;10.33;;;5.27;;
12986;SDS011;58897;51.960;5.582;2023-04-07T06:25:41;12.50;;;4.80;;
12986;SDS011;58897;51.960;5.582;2023-04-07T06:28:08;12.07;;;5.23;;
12986;SDS011;58897;51.960;5.582;2023-04-07T06:30:35;11.03;;;4.30;;
12986;SDS011;58897;51.960;5.582;2023-04-07T06:33:01;9.30;;;4.87;;
12986;SDS011;58897;51.960;5.582;2023-04-07T06:35:28;9.63;;;5.40;;
12986;SDS011;58897;51.960;5.582;2023-04-07T06:37:55;15.10;;;5.97;;
12986;SDS011;58897;51.960;5.582;2023-04-07T06:40:22;12.67;;;5.60;;
12986;SDS011;58897;51.960;5.582;2023-04-07T06:42:48;10.90;;;6.03;;
12986;SDS011;58897;51.960;5.582;2023-04-07T06:45:14;11.83;;;5.67;;
12986;SDS011;58897;51.960;5.582;2023-04-07T06:47:41;9.80;;;5.57;;
12986;SDS011;58897;51.960;5.582;2023-04-07T06:50:08;10.73;;;5.87;;
12986;SDS011;58897;51.960;5.582;2023-04-07T06:52:34;12.67;;;5.97;;
12986;SDS011;58897;51.960;5.582;2023-04-07T06:55:01;11.53;;;5.77;;
12986;SDS011;58897;51.960;5.582;2023-04-07T06:57:27;16.57;;;7.40;;
12986;SDS011;58897;51.960;5.582;2023-04-07T06:59:54;13.07;;;7.30;;
12986;SDS011;58897;51.960;5.582;2023-04-07T07:02:21;13.33;;;7.10;;
12986;SDS011;58897;51.960;5.582;2023-04-07T07:04:48;13.93;;;7.23;;
12986;SDS011;58897;51.960;5.582;2023-04-07T07:07:14;13.23;;;6.97;;
12986;SDS011;58897;51.960;5.582;2023-04-07T07:09:41;12.00;;;6.07;;
12986;SDS011;58897;51.960;5.582;2023-04-07T07:12:07;10.30;;;6.60;;
12986;SDS011;58897;51.960;5.582;2023-04-07T07:14:34;14.73;;;6.70;;
12986;SDS011;58897;51.960;5.582;2023-04-07T07:17:00;15.73;;;7.13;;
12986;SDS011;58897;51.960;5.582;2023-04-07T07:19:26;13.63;;;6.90;;
12986;SDS011;58897;51.960;5.582;2023-04-07T07:21:53;15.80;;;7.57;;
12986;SDS011;58897;51.960;5.582;2023-04-07T07:24:20;17.70;;;8.43;;
12986;SDS011;58897;51.960;5.582;2023-04-07T07:26:47;18.17;;;8.33;;
12986;SDS011;58897;51.960;5.582;2023-04-07T07:29:14;12.40;;;6.60;;
12986;SDS011;58897;51.960;5.582;2023-04-07T07:31:40;15.23;;;7.37;;
12986;SDS011;58897;51.960;5.582;2023-04-07T07:34:07;11.97;;;6.73;;
12986;SDS011;58897;51.960;5.582;2023-04-07T07:36:34;14.37;;;7.20;;
12986;SDS011;58897;51.960;5.582;2023-04-07T07:39:02;14.83;;;6.70;;
12986;SDS011;58897;51.960;5.582;2023-04-07T07:41:31;15.97;;;8.80;;
12986;SDS011;58897;51.960;5.582;2023-04-07T07:43:57;14.10;;;7.30;;
12986;SDS011;58897;51.960;5.582;2023-04-07T07:46:24;14.07;;;6.20;;
12986;SDS011;58897;51.960;5.582;2023-04-07T07:48:52;20.33;;;6.77;;
12986;SDS011;58897;51.960;5.582;2023-04-07T07:51:18;20.60;;;6.93;;
12986;SDS011;58897;51.960;5.582;2023-04-07T07:53:45;17.13;;;6.30;;
12986;SDS011;58897;51.960;5.582;2023-04-07T07:56:12;11.37;;;6.13;;
12986;SDS011;58897;51.960;5.582;2023-04-07T07:58:39;13.33;;;6.33;;
12986;SDS011;58897;51.960;5.582;2023-04-07T08:01:05;13.40;;;5.83;;
12986;SDS011;58897;51.960;5.582;2023-04-07T08:03:32;8.70;;;5.13;;
12986;SDS011;58897;51.960;5.582;2023-04-07T08:05:59;10.00;;;5.67;;
12986;SDS011;58897;51.960;5.582;2023-04-07T08:08:26;13.40;;;6.17;;
12986;SDS011;58897;51.960;5.582;2023-04-07T08:10:56;11.07;;;4.83;;
12986;SDS011;58897;51.960;5.582;2023-04-07T08:13:26;11.90;;;4.90;;
12986;SDS011;58897;51.960;5.582;2023-04-07T08:15:56;11.47;;;5.10;;
12986;SDS011;58897;51.960;5.582;2023-04-07T08:18:24;9.70;;;5.93;;
12986;SDS011;58897;51.960;5.582;2023-04-07T08:20:51;9.97;;;5.10;;
12986;SDS011;58897;51.960;5.582;2023-04-07T08:23:17;12.63;;;5.80;;
12986;SDS011;58897;51.960;5.582;2023-04-07T08:25:44;9.10;;;5.17;;
12986;SDS011;58897;51.960;5.582;2023-04-07T08:28:10;12.73;;;5.67;;
12986;SDS011;58897;51.960;5.582;2023-04-07T08:30:37;7.53;;;4.33;;
12986;SDS011;58897;51.960;5.582;2023-04-07T08:33:05;7.67;;;4.37;;
12986;SDS011;58897;51.960;5.582;2023-04-07T08:35:31;5.70;;;3.30;;
12986;SDS011;58897;51.960;5.582;2023-04-07T08:37:58;9.83;;;3.80;;
12986;SDS011;58897;51.960;5.582;2023-04-07T08:40:25;9.77;;;4.07;;
12986;SDS011;58897;51.960;5.582;2023-04-07T08:42:51;8.77;;;4.20;;
12986;SDS011;58897;51.960;5.582;2023-04-07T08:45:18;11.00;;;4.53;;
12986;SDS011;58897;51.960;5.582;2023-04-07T08:47:46;9.20;;;4.13;;
12986;SDS011;58897;51.960;5.582;2023-04-07T08:50:17;10.57;;;4.10;;
12986;SDS011;58897;51.960;5.582;2023-04-07T08:52:54;7.67;;;4.03;;
12986;SDS011;58897;51.960;5.582;2023-04-07T08:55:22;9.50;;;4.37;;
12986;SDS011;58897;51.960;5.582;2023-04-07T08:57:49;10.80;;;4.50;;
12986;SDS011;58897;51.960;5.582;2023-04-07T09:00:17;11.70;;;4.30;;
12986;SDS011;58897;51.960;5.582;2023-04-07T09:02:46;9.07;;;4.00;;
12986;SDS011;58897;51.960;5.582;2023-04-07T09:05:14;10.27;;;4.03;;
12986;SDS011;58897;51.960;5.582;2023-04-07T09:07:41;5.97;;;3.07;;
12986;SDS011;58897;51.960;5.582;2023-04-07T09:10:10;6.80;;;3.33;;
12986;SDS011;58897;51.960;5.582;2023-04-07T09:12:37;9.57;;;2.60;;
12986;SDS011;58897;51.960;5.582;2023-04-07T09:15:05;8.90;;;3.77;;
12986;SDS011;58897;51.960;5.582;2023-04-07T09:17:32;6.80;;;3.20;;
12986;SDS011;58897;51.960;5.582;2023-04-07T09:19:59;7.73;;;3.40;;
12986;SDS011;58897;51.960;5.582;2023-04-07T09:23:00;9.17;;;3.33;;
12986;SDS011;58897;51.960;5.582;2023-04-07T09:25:22;6.27;;;2.90;;
12986;SDS011;58897;51.960;5.582;2023-04-07T09:28:01;5.00;;;2.67;;
12986;SDS011;58897;51.960;5.582;2023-04-07T09:30:31;8.87;;;3.50;;
12986;SDS011;58897;51.960;5.582;2023-04-07T09:33:00;5.53;;;3.93;;
12986;SDS011;58897;51.960;5.582;2023-04-07T09:35:27;5.93;;;3.13;;
12986;SDS011;58897;51.960;5.582;2023-04-07T09:38:01;12.77;;;4.33;;
12986;SDS011;58897;51.960;5.582;2023-04-07T09:40:33;7.07;;;3.70;;
12986;SDS011;58897;51.960;5.582;2023-04-07T09:43:02;8.37;;;4.70;;
12986;SDS011;58897;51.960;5.582;2023-04-07T09:45:29;10.40;;;4.70;;
12986;SDS011;58897;51.960;5.582;2023-04-07T09:48:36;9.10;;;5.30;;
12986;SDS011;58897;51.960;5.582;2023-04-07T09:51:04;9.20;;;5.27;;
12986;SDS011;58897;51.960;5.582;2023-04-07T09:56:09;9.43;;;4.13;;
12986;SDS011;58897;51.960;5.582;2023-04-07T09:58:37;8.10;;;4.10;;
12986;SDS011;58897;51.960;5.582;2023-04-07T10:01:06;18.20;;;4.50;;
12986;SDS011;58897;51.960;5.582;2023-04-07T10:03:34;8.67;;;3.77;;
12986;SDS011;58897;51.960;5.582;2023-04-07T10:06:01;8.07;;;4.10;;
12986;SDS011;58897;51.960;5.582;2023-04-07T10:08:33;8.43;;;4.20;;
12986;SDS011;58897;51.960;5.582;2023-04-07T10:11:03;8.60;;;4.83;;
12986;SDS011;58897;51.960;5.582;2023-04-07T10:13:32;14.63;;;4.73;;
12986;SDS011;58897;51.960;5.582;2023-04-07T10:16:04;8.23;;;4.13;;
12986;SDS011;58897;51.960;5.582;2023-04-07T10:18:33;9.50;;;4.17;;
12986;SDS011;58897;51.960;5.582;2023-04-07T10:21:01;10.10;;;4.40;;
12986;SDS011;58897;51.960;5.582;2023-04-07T10:26:33;11.00;;;4.20;;
12986;SDS011;58897;51.960;5.582;2023-04-07T10:29:03;9.00;;;3.50;;
12986;SDS011;58897;51.960;5.582;2023-04-07T10:31:35;4.17;;;3.00;;
12986;SDS011;58897;51.960;5.582;2023-04-07T10:34:03;8.00;;;3.80;;
12986;SDS011;58897;51.960;5.582;2023-04-07T10:36:30;5.73;;;3.67;;
12986;SDS011;58897;51.960;5.582;2023-04-07T10:41:36;5.40;;;3.27;;
12986;SDS011;58897;51.960;5.582;2023-04-07T10:44:07;6.33;;;3.27;;
12986;SDS011;58897;51.960;5.582;2023-04-07T10:49:15;7.43;;;3.53;;
12986;SDS011;58897;51.960;5.582;2023-04-07T10:51:44;5.40;;;2.97;;
12986;SDS011;58897;51.960;5.582;2023-04-07T10:54:36;5.63;;;2.90;;
12986;SDS011;58897;51.960;5.582;2023-04-07T10:59:35;4.17;;;2.47;;
12986;SDS011;58897;51.960;5.582;2023-04-07T11:04:43;4.70;;;2.80;;
12986;SDS011;58897;51.960;5.582;2023-04-07T11:07:12;6.17;;;2.73;;
12986;SDS011;58897;51.960;5.582;2023-04-07T11:09:40;4.93;;;2.50;;
12986;SDS011;58897;51.960;5.582;2023-04-07T11:12:08;8.53;;;3.20;;
12986;SDS011;58897;51.960;5.582;2023-04-07T11:14:47;4.83;;;3.20;;
12986;SDS011;58897;51.960;5.582;2023-04-07T11:17:14;6.37;;;2.83;;
12986;SDS011;58897;51.960;5.582;2023-04-07T11:19:52;5.37;;;2.70;;
12986;SDS011;58897;51.960;5.582;2023-04-07T11:22:21;7.03;;;3.23;;
12986;SDS011;58897;51.960;5.582;2023-04-07T11:24:55;6.63;;;3.93;;
12986;SDS011;58897;51.960;5.582;2023-04-07T11:27:22;7.00;;;4.07;;
12986;SDS011;58897;51.960;5.582;2023-04-07T11:29:48;9.07;;;5.33;;
12986;SDS011;58897;51.960;5.582;2023-04-07T11:32:21;11.83;;;4.73;;
12986;SDS011;58897;51.960;5.582;2023-04-07T11:34:51;8.63;;;3.90;;
12986;SDS011;58897;51.960;5.582;2023-04-07T11:37:22;11.10;;;4.50;;
12986;SDS011;58897;51.960;5.582;2023-04-07T11:39:55;8.40;;;3.83;;
12986;SDS011;58897;51.960;5.582;2023-04-07T11:42:32;7.30;;;3.67;;
12986;SDS011;58897;51.960;5.582;2023-04-07T11:45:14;10.03;;;4.40;;
12986;SDS011;58897;51.960;5.582;2023-04-07T11:47:42;5.07;;;3.27;;
12986;SDS011;58897;51.960;5.582;2023-04-07T11:50:11;6.27;;;3.33;;
12986;SDS011;58897;51.960;5.582;2023-04-07T11:52:43;6.07;;;3.67;;
12986;SDS011;58897;51.960;5.582;2023-04-07T11:55:21;9.43;;;3.37;;
12986;SDS011;58897;51.960;5.582;2023-04-07T11:57:50;5.20;;;2.93;;
12986;SDS011;58897;51.960;5.582;2023-04-07T12:00:17;7.67;;;3.50;;
12986;SDS011;58897;51.960;5.582;2023-04-07T12:02:45;6.43;;;2.90;;
12986;SDS011;58897;51.960;5.582;2023-04-07T12:05:12;12.67;;;3.67;;
12986;SDS011;58897;51.960;5.582;2023-04-07T12:07:39;5.30;;;3.50;;
12986;SDS011;58897;51.960;5.582;2023-04-07T12:10:19;9.03;;;3.43;;
12986;SDS011;58897;51.960;5.582;2023-04-07T12:12:49;8.77;;;3.93;;
12986;SDS011;58897;51.960;5.582;2023-04-07T12:15:16;13.93;;;3.80;;
12986;SDS011;58897;51.960;5.582;2023-04-07T12:17:49;7.47;;;4.20;;
12986;SDS011;58897;51.960;5.582;2023-04-07T12:20:20;6.70;;;4.20;;
12986;SDS011;58897;51.960;5.582;2023-04-07T12:22:50;7.07;;;3.80;;
12986;SDS011;58897;51.960;5.582;2023-04-07T12:25:18;16.70;;;4.63;;
12986;SDS011;58897;51.960;5.582;2023-04-07T12:27:44;8.90;;;4.10;;
12986;SDS011;58897;51.960;5.582;2023-04-07T12:30:12;8.20;;;4.77;;
12986;SDS011;58897;51.960;5.582;2023-04-07T12:32:39;8.53;;;4.33;;
12986;SDS011;58897;51.960;5.582;2023-04-07T12:35:06;6.40;;;4.00;;
12986;SDS011;58897;51.960;5.582;2023-04-07T12:37:35;9.00;;;4.20;;
12986;SDS011;58897;51.960;5.582;2023-04-07T12:40:02;6.53;;;4.63;;
12986;SDS011;58897;51.960;5.582;2023-04-07T12:42:29;10.80;;;4.40;;
12986;SDS011;58897;51.960;5.582;2023-04-07T12:44:56;7.50;;;4.07;;
12986;SDS011;58897;51.960;5.582;2023-04-07T12:47:22;10.30;;;5.47;;
12986;SDS011;58897;51.960;5.582;2023-04-07T12:49:49;8.17;;;4.87;;
12986;SDS011;58897;51.960;5.582;2023-04-07T12:52:16;7.50;;;4.07;;
12986;SDS011;58897;51.960;5.582;2023-04-07T12:54:43;7.20;;;4.40;;
12986;SDS011;58897;51.960;5.582;2023-04-07T12:57:10;8.13;;;4.17;;
12986;SDS011;58897;51.960;5.582;2023-04-07T12:59:37;8.43;;;4.13;;
12986;SDS011;58897;51.960;5.582;2023-04-07T13:02:04;11.53;;;4.83;;
12986;SDS011;58897;51.960;5.582;2023-04-07T13:04:32;11.57;;;4.23;;
12986;SDS011;58897;51.960;5.582;2023-04-07T13:07:00;12.77;;;4.53;;
12986;SDS011;58897;51.960;5.582;2023-04-07T13:09:35;11.13;;;4.80;;
12986;SDS011;58897;51.960;5.582;2023-04-07T13:15:38;7.87;;;5.10;;
12986;SDS011;58897;51.960;5.582;2023-04-07T13:18:05;9.27;;;4.30;;
12986;SDS011;58897;51.960;5.582;2023-04-07T13:20:31;9.63;;;4.87;;
12986;SDS011;58897;51.960;5.582;2023-04-07T13:22:59;10.07;;;4.60;;
12986;SDS011;58897;51.960;5.582;2023-04-07T13:25:34;5.70;;;3.73;;
12986;SDS011;58897;51.960;5.582;2023-04-07T13:28:01;9.53;;;4.10;;
12986;SDS011;58897;51.960;5.582;2023-04-07T13:30:28;5.20;;;3.57;;
12986;SDS011;58897;51.960;5.582;2023-04-07T13:32:55;8.23;;;4.13;;
12986;SDS011;58897;51.960;5.582;2023-04-07T13:35:22;7.03;;;3.47;;
12986;SDS011;58897;51.960;5.582;2023-04-07T13:37:49;7.33;;;3.93;;
12986;SDS011;58897;51.960;5.582;2023-04-07T13:40:15;8.27;;;4.30;;
12986;SDS011;58897;51.960;5.582;2023-04-07T13:42:42;6.70;;;3.97;;
12986;SDS011;58897;51.960;5.582;2023-04-07T13:45:08;4.57;;;3.60;;
12986;SDS011;58897;51.960;5.582;2023-04-07T13:47:35;11.17;;;4.73;;
12986;SDS011;58897;51.960;5.582;2023-04-07T13:50:02;8.00;;;4.73;;
12986;SDS011;58897;51.960;5.582;2023-04-07T13:52:29;8.73;;;5.50;;
12986;SDS011;58897;51.960;5.582;2023-04-07T13:54:58;8.00;;;4.50;;
12986;SDS011;58897;51.960;5.582;2023-04-07T13:57:24;7.27;;;4.17;;
12986;SDS011;58897;51.960;5.582;2023-04-07T13:59:51;9.73;;;4.53;;
12986;SDS011;58897;51.960;5.582;2023-04-07T14:02:18;9.33;;;4.40;;
12986;SDS011;58897;51.960;5.582;2023-04-07T14:04:46;5.73;;;4.07;;
12986;SDS011;58897;51.960;5.582;2023-04-07T14:07:12;7.63;;;4.20;;
12986;SDS011;58897;51.960;5.582;2023-04-07T14:09:39;6.63;;;4.37;;
12986;SDS011;58897;51.960;5.582;2023-04-07T14:12:05;10.23;;;4.90;;
12986;SDS011;58897;51.960;5.582;2023-04-07T14:14:32;6.43;;;4.17;;
12986;SDS011;58897;51.960;5.582;2023-04-07T14:16:59;7.90;;;4.20;;
12986;SDS011;58897;51.960;5.582;2023-04-07T14:19:25;8.63;;;3.83;;
12986;SDS011;58897;51.960;5.582;2023-04-07T14:21:52;7.07;;;3.87;;
12986;SDS011;58897;51.960;5.582;2023-04-07T14:24:19;6.10;;;3.90;;
12986;SDS011;58897;51.960;5.582;2023-04-07T14:26:45;8.10;;;3.90;;
12986;SDS011;58897;51.960;5.582;2023-04-07T14:29:12;7.60;;;3.90;;
12986;SDS011;58897;51.960;5.582;2023-04-07T14:31:40;8.67;;;4.37;;
12986;SDS011;58897;51.960;5.582;2023-04-07T14:34:06;9.87;;;4.97;;
12986;SDS011;58897;51.960;5.582;2023-04-07T14:36:33;10.90;;;4.20;;
12986;SDS011;58897;51.960;5.582;2023-04-07T14:39:00;8.60;;;4.47;;
12986;SDS011;58897;51.960;5.582;2023-04-07T14:41:27;10.17;;;3.83;;
12986;SDS011;58897;51.960;5.582;2023-04-07T14:43:53;7.60;;;3.90;;
12986;SDS011;58897;51.960;5.582;2023-04-07T14:46:24;6.80;;;3.97;;
12986;SDS011;58897;51.960;5.582;2023-04-07T14:48:52;9.17;;;4.10;;
12986;SDS011;58897;51.960;5.582;2023-04-07T14:51:19;10.07;;;4.47;;
12986;SDS011;58897;51.960;5.582;2023-04-07T14:53:46;7.03;;;3.93;;
12986;SDS011;58897;51.960;5.582;2023-04-07T14:56:18;6.83;;;3.27;;
12986;SDS011;58897;51.960;5.582;2023-04-07T14:58:48;4.93;;;3.80;;
12986;SDS011;58897;51.960;5.582;2023-04-07T15:01:16;5.03;;;3.80;;
12986;SDS011;58897;51.960;5.582;2023-04-07T15:03:43;8.80;;;3.50;;
12986;SDS011;58897;51.960;5.582;2023-04-07T15:06:12;5.57;;;4.07;;
12986;SDS011;58897;51.960;5.582;2023-04-07T15:08:39;7.93;;;3.90;;
12986;SDS011;58897;51.960;5.582;2023-04-07T15:11:06;9.07;;;4.57;;
12986;SDS011;58897;51.960;5.582;2023-04-07T15:13:33;8.17;;;4.43;;